sensor_id;sensor_type;location;lat;lon;timestamp;temperature;humidity
5334;DHT22;2689;50.954;7.116;2024-03-08T00:01:34;4.50;84.40
5334;DHT22;2689;50.954;7.116;2024-03-08T00:04:01;4.40;84.50
5334;DHT22;2689;50.954;7.116;2024-03-08T00:06:28;4.40;84.60
5334;DHT22;2689;50.954;7.116;2024-03-08T00:08:55;4.40;84.80
5334;DHT22;2689;50.954;7.116;2024-03-08T00:11:22;4.50;84.80
5334;DHT22;2689;50.954;7.116;2024-03-08T00:13:51;4.50;85.60
5334;DHT22;2689;50.954;7.116;2024-03-08T00:16:18;4.40;84.90
5334;DHT22;2689;50.954;7.116;2024-03-08T00:18:47;4.40;85.20
5334;DHT22;2689;50.954;7.116;2024-03-08T00:21:14;4.30;85.30
5334;DHT22;2689;50.954;7.116;2024-03-08T00:23:41;4.20;85.60
5334;DHT22;2689;50.954;7.116;2024-03-08T00:26:08;4.20;86.00
5334;DHT22;2689;50.954;7.116;2024-03-08T00:28:35;4.10;86.00
5334;DHT22;2689;50.954;7.116;2024-03-08T00:31:02;4.10;86.00
5334;DHT22;2689;50.954;7.116;2024-03-08T00:33:29;4.10;86.10
5334;DHT22;2689;50.954;7.116;2024-03-08T00:35:57;4.10;86.30
5334;DHT22;2689;50.954;7.116;2024-03-08T00:38:24;4.10;86.50
5334;DHT22;2689;50.954;7.116;2024-03-08T00:40:51;4.10;86.50
5334;DHT22;2689;50.954;7.116;2024-03-08T00:43:18;4.00;86.50
5334;DHT22;2689;50.954;7.116;2024-03-08T00:45:44;4.10;86.80
5334;DHT22;2689;50.954;7.116;2024-03-08T00:48:11;4.00;86.80
5334;DHT22;2689;50.954;7.116;2024-03-08T00:50:38;4.00;86.70
5334;DHT22;2689;50.954;7.116;2024-03-08T00:53:06;4.00;86.90
5334;DHT22;2689;50.954;7.116;2024-03-08T00:55:33;4.00;87.00
5334;DHT22;2689;50.954;7.116;2024-03-08T00:58:00;4.00;87.10
5334;DHT22;2689;50.954;7.116;2024-03-08T01:00:27;4.00;87.10
5334;DHT22;2689;50.954;7.116;2024-03-08T01:02:54;4.00;87.20
5334;DHT22;2689;50.954;7.116;2024-03-08T01:05:21;4.00;87.50
5334;DHT22;2689;50.954;7.116;2024-03-08T01:07:49;4.00;87.50
5334;DHT22;2689;50.954;7.116;2024-03-08T01:10:17;4.00;87.60
5334;DHT22;2689;50.954;7.116;2024-03-08T01:12:44;4.00;87.60
5334;DHT22;2689;50.954;7.116;2024-03-08T01:15:11;4.10;87.80
5334;DHT22;2689;50.954;7.116;2024-03-08T01:17:37;4.00;88.00
5334;DHT22;2689;50.954;7.116;2024-03-08T01:20:05;3.90;88.10
5334;DHT22;2689;50.954;7.116;2024-03-08T01:22:32;3.90;88.30
5334;DHT22;2689;50.954;7.116;2024-03-08T01:24:59;4.00;88.40
5334;DHT22;2689;50.954;7.116;2024-03-08T01:27:27;3.90;88.50
5334;DHT22;2689;50.954;7.116;2024-03-08T01:29:54;4.00;88.80
5334;DHT22;2689;50.954;7.116;2024-03-08T01:32:21;3.90;88.90
5334;DHT22;2689;50.954;7.116;2024-03-08T01:34:49;3.90;89.00
5334;DHT22;2689;50.954;7.116;2024-03-08T01:37:16;3.90;89.20
5334;DHT22;2689;50.954;7.116;2024-03-08T01:39:43;3.80;89.30
5334;DHT22;2689;50.954;7.116;2024-03-08T01:42:09;3.90;89.50
5334;DHT22;2689;50.954;7.116;2024-03-08T01:44:39;3.90;89.60
5334;DHT22;2689;50.954;7.116;2024-03-08T01:47:06;3.90;89.70
5334;DHT22;2689;50.954;7.116;2024-03-08T01:49:33;3.90;89.80
5334;DHT22;2689;50.954;7.116;2024-03-08T01:52:00;3.90;89.80
5334;DHT22;2689;50.954;7.116;2024-03-08T01:54:27;3.90;90.00
5334;DHT22;2689;50.954;7.116;2024-03-08T01:56:56;3.90;90.00
5334;DHT22;2689;50.954;7.116;2024-03-08T01:59:24;3.80;90.00
5334;DHT22;2689;50.954;7.116;2024-03-08T02:01:55;3.80;90.10
5334;DHT22;2689;50.954;7.116;2024-03-08T02:04:23;3.80;90.20
5334;DHT22;2689;50.954;7.116;2024-03-08T02:06:50;3.80;90.20
5334;DHT22;2689;50.954;7.116;2024-03-08T02:09:17;3.80;90.20
5334;DHT22;2689;50.954;7.116;2024-03-08T02:11:44;3.80;90.20
5334;DHT22;2689;50.954;7.116;2024-03-08T02:14:11;3.80;90.20
5334;DHT22;2689;50.954;7.116;2024-03-08T02:16:38;3.80;90.20
5334;DHT22;2689;50.954;7.116;2024-03-08T02:19:06;3.80;90.20
5334;DHT22;2689;50.954;7.116;2024-03-08T02:21:36;3.80;90.20
5334;DHT22;2689;50.954;7.116;2024-03-08T02:24:04;3.80;90.10
5334;DHT22;2689;50.954;7.116;2024-03-08T02:26:31;3.80;90.20
5334;DHT22;2689;50.954;7.116;2024-03-08T02:28:58;3.80;90.20
5334;DHT22;2689;50.954;7.116;2024-03-08T02:31:24;3.80;90.20
5334;DHT22;2689;50.954;7.116;2024-03-08T02:33:51;3.90;90.30
5334;DHT22;2689;50.954;7.116;2024-03-08T02:36:18;3.80;90.20
5334;DHT22;2689;50.954;7.116;2024-03-08T02:38:46;3.80;90.20
5334;DHT22;2689;50.954;7.116;2024-03-08T02:41:13;3.70;90.30
5334;DHT22;2689;50.954;7.116;2024-03-08T02:43:39;3.70;90.30
5334;DHT22;2689;50.954;7.116;2024-03-08T02:46:06;3.70;90.30
5334;DHT22;2689;50.954;7.116;2024-03-08T02:48:33;3.70;90.40
5334;DHT22;2689;50.954;7.116;2024-03-08T02:51:00;3.60;90.40
5334;DHT22;2689;50.954;7.116;2024-03-08T02:53:27;3.70;90.50
5334;DHT22;2689;50.954;7.116;2024-03-08T02:55:56;3.70;90.50
5334;DHT22;2689;50.954;7.116;2024-03-08T02:58:22;3.70;90.50
5334;DHT22;2689;50.954;7.116;2024-03-08T03:00:49;3.70;90.40
5334;DHT22;2689;50.954;7.116;2024-03-08T03:03:16;3.70;90.50
5334;DHT22;2689;50.954;7.116;2024-03-08T03:05:43;3.70;90.40
5334;DHT22;2689;50.954;7.116;2024-03-08T03:08:10;3.70;90.50
5334;DHT22;2689;50.954;7.116;2024-03-08T03:10:37;3.70;90.50
5334;DHT22;2689;50.954;7.116;2024-03-08T03:13:05;3.60;90.40
5334;DHT22;2689;50.954;7.116;2024-03-08T03:15:32;3.60;90.40
5334;DHT22;2689;50.954;7.116;2024-03-08T03:18:00;3.60;90.50
5334;DHT22;2689;50.954;7.116;2024-03-08T03:20:27;3.70;90.70
5334;DHT22;2689;50.954;7.116;2024-03-08T03:22:58;3.70;90.60
5334;DHT22;2689;50.954;7.116;2024-03-08T03:25:27;3.60;90.60
5334;DHT22;2689;50.954;7.116;2024-03-08T03:27:58;3.60;90.60
5334;DHT22;2689;50.954;7.116;2024-03-08T03:30:26;3.60;90.70
5334;DHT22;2689;50.954;7.116;2024-03-08T03:32:58;3.60;90.70
5334;DHT22;2689;50.954;7.116;2024-03-08T03:35:26;3.50;90.70
5334;DHT22;2689;50.954;7.116;2024-03-08T03:37:52;3.60;90.80
5334;DHT22;2689;50.954;7.116;2024-03-08T03:40:28;3.60;90.80
5334;DHT22;2689;50.954;7.116;2024-03-08T03:42:54;3.60;90.80
5334;DHT22;2689;50.954;7.116;2024-03-08T03:45:21;3.60;90.90
5334;DHT22;2689;50.954;7.116;2024-03-08T03:47:50;3.50;90.90
5334;DHT22;2689;50.954;7.116;2024-03-08T03:50:17;3.50;90.90
5334;DHT22;2689;50.954;7.116;2024-03-08T03:52:44;3.50;91.00
5334;DHT22;2689;50.954;7.116;2024-03-08T03:55:12;3.50;91.10
5334;DHT22;2689;50.954;7.116;2024-03-08T03:57:39;3.50;91.00
5334;DHT22;2689;50.954;7.116;2024-03-08T04:00:07;3.50;91.10
5334;DHT22;2689;50.954;7.116;2024-03-08T04:02:36;3.50;91.20
5334;DHT22;2689;50.954;7.116;2024-03-08T04:05:07;3.50;91.20
5334;DHT22;2689;50.954;7.116;2024-03-08T04:07:33;3.50;91.20
5334;DHT22;2689;50.954;7.116;2024-03-08T04:10:01;3.50;91.10
5334;DHT22;2689;50.954;7.116;2024-03-08T04:12:28;3.50;91.20
5334;DHT22;2689;50.954;7.116;2024-03-08T04:14:56;3.50;91.20
5334;DHT22;2689;50.954;7.116;2024-03-08T04:17:23;3.50;91.20
5334;DHT22;2689;50.954;7.116;2024-03-08T04:19:50;3.50;91.20
5334;DHT22;2689;50.954;7.116;2024-03-08T04:22:19;3.50;91.30
5334;DHT22;2689;50.954;7.116;2024-03-08T04:24:46;3.50;91.40
5334;DHT22;2689;50.954;7.116;2024-03-08T04:27:13;3.50;91.40
5334;DHT22;2689;50.954;7.116;2024-03-08T04:29:40;3.40;91.50
5334;DHT22;2689;50.954;7.116;2024-03-08T04:32:08;3.40;91.50
5334;DHT22;2689;50.954;7.116;2024-03-08T04:34:35;3.40;91.60
5334;DHT22;2689;50.954;7.116;2024-03-08T04:37:02;3.40;91.60
5334;DHT22;2689;50.954;7.116;2024-03-08T04:39:31;3.40;91.60
5334;DHT22;2689;50.954;7.116;2024-03-08T04:42:00;3.40;91.60
5334;DHT22;2689;50.954;7.116;2024-03-08T04:44:28;3.40;91.60
5334;DHT22;2689;50.954;7.116;2024-03-08T04:46:55;3.40;91.80
5334;DHT22;2689;50.954;7.116;2024-03-08T04:49:22;3.40;91.90
5334;DHT22;2689;50.954;7.116;2024-03-08T04:51:49;3.30;92.00
5334;DHT22;2689;50.954;7.116;2024-03-08T04:54:16;3.30;92.00
5334;DHT22;2689;50.954;7.116;2024-03-08T04:56:44;3.30;92.00
5334;DHT22;2689;50.954;7.116;2024-03-08T04:59:11;3.30;92.10
5334;DHT22;2689;50.954;7.116;2024-03-08T05:01:39;3.30;92.20
5334;DHT22;2689;50.954;7.116;2024-03-08T05:04:06;3.30;92.30
5334;DHT22;2689;50.954;7.116;2024-03-08T05:06:32;3.20;92.30
5334;DHT22;2689;50.954;7.116;2024-03-08T05:08:59;3.30;92.30
5334;DHT22;2689;50.954;7.116;2024-03-08T05:11:26;3.20;92.30
5334;DHT22;2689;50.954;7.116;2024-03-08T05:13:54;3.20;92.50
5334;DHT22;2689;50.954;7.116;2024-03-08T05:16:21;3.20;92.50
5334;DHT22;2689;50.954;7.116;2024-03-08T05:18:49;3.20;92.60
5334;DHT22;2689;50.954;7.116;2024-03-08T05:21:16;3.20;92.60
5334;DHT22;2689;50.954;7.116;2024-03-08T05:23:45;3.20;92.70
5334;DHT22;2689;50.954;7.116;2024-03-08T05:26:12;3.20;92.70
5334;DHT22;2689;50.954;7.116;2024-03-08T05:28:39;3.20;92.80
5334;DHT22;2689;50.954;7.116;2024-03-08T05:31:08;3.20;92.90
5334;DHT22;2689;50.954;7.116;2024-03-08T05:33:34;3.20;92.90
5334;DHT22;2689;50.954;7.116;2024-03-08T05:36:02;3.20;93.00
5334;DHT22;2689;50.954;7.116;2024-03-08T05:38:29;3.20;93.20
5334;DHT22;2689;50.954;7.116;2024-03-08T05:40:55;3.20;93.20
5334;DHT22;2689;50.954;7.116;2024-03-08T05:43:22;3.20;93.30
5334;DHT22;2689;50.954;7.116;2024-03-08T05:45:50;3.10;93.30
5334;DHT22;2689;50.954;7.116;2024-03-08T05:48:18;3.10;93.40
5334;DHT22;2689;50.954;7.116;2024-03-08T05:50:45;3.20;93.50
5334;DHT22;2689;50.954;7.116;2024-03-08T05:53:12;3.20;93.50
5334;DHT22;2689;50.954;7.116;2024-03-08T05:55:39;3.20;93.50
5334;DHT22;2689;50.954;7.116;2024-03-08T05:58:06;3.10;93.50
5334;DHT22;2689;50.954;7.116;2024-03-08T06:00:33;3.10;93.60
5334;DHT22;2689;50.954;7.116;2024-03-08T06:03:01;3.20;93.70
5334;DHT22;2689;50.954;7.116;2024-03-08T06:05:30;3.20;93.60
5334;DHT22;2689;50.954;7.116;2024-03-08T06:07:57;3.20;93.70
5334;DHT22;2689;50.954;7.116;2024-03-08T06:10:23;3.30;93.60
5334;DHT22;2689;50.954;7.116;2024-03-08T06:12:50;3.30;93.60
5334;DHT22;2689;50.954;7.116;2024-03-08T06:15:17;3.30;93.60
5334;DHT22;2689;50.954;7.116;2024-03-08T06:17:46;3.30;93.60
5334;DHT22;2689;50.954;7.116;2024-03-08T06:20:13;3.30;93.70
5334;DHT22;2689;50.954;7.116;2024-03-08T06:22:41;3.30;93.80
5334;DHT22;2689;50.954;7.116;2024-03-08T06:25:11;3.30;93.80
5334;DHT22;2689;50.954;7.116;2024-03-08T06:27:39;3.30;93.90
5334;DHT22;2689;50.954;7.116;2024-03-08T06:30:08;3.30;93.90
5334;DHT22;2689;50.954;7.116;2024-03-08T06:32:36;3.40;94.20
5334;DHT22;2689;50.954;7.116;2024-03-08T06:35:03;3.40;94.10
5334;DHT22;2689;50.954;7.116;2024-03-08T06:37:31;3.40;93.90
5334;DHT22;2689;50.954;7.116;2024-03-08T06:40:00;3.40;94.00
5334;DHT22;2689;50.954;7.116;2024-03-08T06:42:27;3.50;94.00
5334;DHT22;2689;50.954;7.116;2024-03-08T06:44:54;3.60;93.90
5334;DHT22;2689;50.954;7.116;2024-03-08T06:47:25;3.60;94.00
5334;DHT22;2689;50.954;7.116;2024-03-08T06:49:52;3.60;94.10
5334;DHT22;2689;50.954;7.116;2024-03-08T06:52:19;3.70;94.00
5334;DHT22;2689;50.954;7.116;2024-03-08T06:54:45;3.70;93.90
5334;DHT22;2689;50.954;7.116;2024-03-08T06:57:13;3.70;93.80
5334;DHT22;2689;50.954;7.116;2024-03-08T06:59:42;3.80;93.70
5334;DHT22;2689;50.954;7.116;2024-03-08T07:02:09;3.80;93.60
5334;DHT22;2689;50.954;7.116;2024-03-08T07:04:36;3.90;93.70
5334;DHT22;2689;50.954;7.116;2024-03-08T07:07:03;4.00;93.60
5334;DHT22;2689;50.954;7.116;2024-03-08T07:09:30;4.00;93.40
5334;DHT22;2689;50.954;7.116;2024-03-08T07:11:58;4.00;93.30
5334;DHT22;2689;50.954;7.116;2024-03-08T07:14:26;4.10;93.30
5334;DHT22;2689;50.954;7.116;2024-03-08T07:16:53;4.30;93.30
5334;DHT22;2689;50.954;7.116;2024-03-08T07:19:19;4.60;93.30
5334;DHT22;2689;50.954;7.116;2024-03-08T07:21:47;4.70;92.00
5334;DHT22;2689;50.954;7.116;2024-03-08T07:24:14;4.80;91.70
5334;DHT22;2689;50.954;7.116;2024-03-08T07:26:58;4.90;91.50
5334;DHT22;2689;50.954;7.116;2024-03-08T07:29:26;4.90;91.40
5334;DHT22;2689;50.954;7.116;2024-03-08T07:31:56;5.00;91.30
5334;DHT22;2689;50.954;7.116;2024-03-08T07:34:37;5.00;91.50
5334;DHT22;2689;50.954;7.116;2024-03-08T07:37:05;5.00;91.10
5334;DHT22;2689;50.954;7.116;2024-03-08T07:39:36;5.00;91.00
5334;DHT22;2689;50.954;7.116;2024-03-08T07:42:03;5.00;91.20
5334;DHT22;2689;50.954;7.116;2024-03-08T07:44:31;5.00;91.10
5334;DHT22;2689;50.954;7.116;2024-03-08T07:47:26;5.10;91.10
5334;DHT22;2689;50.954;7.116;2024-03-08T07:49:56;5.10;91.00
5334;DHT22;2689;50.954;7.116;2024-03-08T07:52:23;5.20;91.00
5334;DHT22;2689;50.954;7.116;2024-03-08T07:54:49;5.40;91.30
5334;DHT22;2689;50.954;7.116;2024-03-08T07:57:16;6.50;91.20
5334;DHT22;2689;50.954;7.116;2024-03-08T07:59:44;8.40;89.10
5334;DHT22;2689;50.954;7.116;2024-03-08T08:02:11;9.80;80.20
5334;DHT22;2689;50.954;7.116;2024-03-08T08:04:38;10.90;73.20
5334;DHT22;2689;50.954;7.116;2024-03-08T08:07:05;11.90;70.80
5334;DHT22;2689;50.954;7.116;2024-03-08T08:09:32;13.10;65.80
5334;DHT22;2689;50.954;7.116;2024-03-08T08:12:00;13.70;63.70
5334;DHT22;2689;50.954;7.116;2024-03-08T08:14:28;14.40;61.30
5334;DHT22;2689;50.954;7.116;2024-03-08T08:16:57;15.20;59.70
5334;DHT22;2689;50.954;7.116;2024-03-08T08:19:29;16.40;57.10
5334;DHT22;2689;50.954;7.116;2024-03-08T08:21:55;16.70;54.50
5334;DHT22;2689;50.954;7.116;2024-03-08T08:24:23;17.30;53.90
5334;DHT22;2689;50.954;7.116;2024-03-08T08:26:50;17.60;52.30
5334;DHT22;2689;50.954;7.116;2024-03-08T08:29:18;17.90;51.20
5334;DHT22;2689;50.954;7.116;2024-03-08T08:31:45;17.90;49.60
5334;DHT22;2689;50.954;7.116;2024-03-08T08:34:14;17.90;50.90
5334;DHT22;2689;50.954;7.116;2024-03-08T08:36:41;18.00;49.40
5334;DHT22;2689;50.954;7.116;2024-03-08T08:39:07;17.60;50.30
5334;DHT22;2689;50.954;7.116;2024-03-08T08:41:39;18.10;50.30
5334;DHT22;2689;50.954;7.116;2024-03-08T08:44:07;18.10;48.80
5334;DHT22;2689;50.954;7.116;2024-03-08T08:46:35;18.00;49.20
5334;DHT22;2689;50.954;7.116;2024-03-08T08:49:03;18.40;48.70
5334;DHT22;2689;50.954;7.116;2024-03-08T08:51:32;19.60;48.10
5334;DHT22;2689;50.954;7.116;2024-03-08T08:53:59;20.40;45.50
5334;DHT22;2689;50.954;7.116;2024-03-08T08:56:26;19.80;45.10
5334;DHT22;2689;50.954;7.116;2024-03-08T08:58:54;19.80;45.40
5334;DHT22;2689;50.954;7.116;2024-03-08T09:01:23;19.80;45.60
5334;DHT22;2689;50.954;7.116;2024-03-08T09:03:51;20.10;45.90
5334;DHT22;2689;50.954;7.116;2024-03-08T09:06:19;21.20;45.70
5334;DHT22;2689;50.954;7.116;2024-03-08T09:08:47;21.50;43.50
5334;DHT22;2689;50.954;7.116;2024-03-08T09:11:14;21.30;42.20
5334;DHT22;2689;50.954;7.116;2024-03-08T09:13:44;21.40;43.20
5334;DHT22;2689;50.954;7.116;2024-03-08T09:16:11;21.20;43.60
5334;DHT22;2689;50.954;7.116;2024-03-08T09:18:38;21.10;43.30
5334;DHT22;2689;50.954;7.116;2024-03-08T09:21:05;21.10;43.20
5334;DHT22;2689;50.954;7.116;2024-03-08T09:23:35;22.10;43.60
5334;DHT22;2689;50.954;7.116;2024-03-08T09:26:03;21.90;41.70
5334;DHT22;2689;50.954;7.116;2024-03-08T09:28:30;20.80;41.80
5334;DHT22;2689;50.954;7.116;2024-03-08T09:30:57;21.00;42.60
5334;DHT22;2689;50.954;7.116;2024-03-08T09:33:24;20.20;42.30
5334;DHT22;2689;50.954;7.116;2024-03-08T09:35:54;19.90;43.30
5334;DHT22;2689;50.954;7.116;2024-03-08T09:38:24;20.20;44.40
5334;DHT22;2689;50.954;7.116;2024-03-08T09:40:51;20.60;44.00
5334;DHT22;2689;50.954;7.116;2024-03-08T09:43:20;21.00;42.60
5334;DHT22;2689;50.954;7.116;2024-03-08T09:45:49;21.60;42.10
5334;DHT22;2689;50.954;7.116;2024-03-08T09:48:17;20.60;42.50
5334;DHT22;2689;50.954;7.116;2024-03-08T09:50:46;21.20;44.00
5334;DHT22;2689;50.954;7.116;2024-03-08T09:53:14;22.20;42.30
5334;DHT22;2689;50.954;7.116;2024-03-08T09:55:42;22.10;40.70
5334;DHT22;2689;50.954;7.116;2024-03-08T09:58:12;21.90;41.10
5334;DHT22;2689;50.954;7.116;2024-03-08T10:01:18;21.60;40.90
5334;DHT22;2689;50.954;7.116;2024-03-08T10:03:47;21.20;41.60
5334;DHT22;2689;50.954;7.116;2024-03-08T10:06:15;20.40;42.00
5334;DHT22;2689;50.954;7.116;2024-03-08T10:08:42;20.70;43.20
5334;DHT22;2689;50.954;7.116;2024-03-08T10:11:10;21.10;42.90
5334;DHT22;2689;50.954;7.116;2024-03-08T10:13:38;22.30;42.20
5334;DHT22;2689;50.954;7.116;2024-03-08T10:16:07;22.90;40.20
5334;DHT22;2689;50.954;7.116;2024-03-08T10:18:35;22.80;39.80
5334;DHT22;2689;50.954;7.116;2024-03-08T10:21:04;23.50;40.20
5334;DHT22;2689;50.954;7.116;2024-03-08T10:23:33;23.30;39.00
5334;DHT22;2689;50.954;7.116;2024-03-08T10:26:12;23.60;38.10
5334;DHT22;2689;50.954;7.116;2024-03-08T10:28:41;22.70;38.30
5334;DHT22;2689;50.954;7.116;2024-03-08T10:31:08;22.80;39.50
5334;DHT22;2689;50.954;7.116;2024-03-08T10:33:37;22.40;38.90
5334;DHT22;2689;50.954;7.116;2024-03-08T10:36:07;21.60;40.30
5334;DHT22;2689;50.954;7.116;2024-03-08T10:38:38;21.30;40.50
5334;DHT22;2689;50.954;7.116;2024-03-08T10:41:06;21.40;40.60
5334;DHT22;2689;50.954;7.116;2024-03-08T10:43:44;21.00;41.60
5334;DHT22;2689;50.954;7.116;2024-03-08T10:46:21;21.40;41.30
5334;DHT22;2689;50.954;7.116;2024-03-08T10:48:55;21.90;39.60
5334;DHT22;2689;50.954;7.116;2024-03-08T10:51:25;21.40;39.70
5334;DHT22;2689;50.954;7.116;2024-03-08T10:53:52;19.90;39.90
5334;DHT22;2689;50.954;7.116;2024-03-08T10:56:20;20.10;42.80
5334;DHT22;2689;50.954;7.116;2024-03-08T10:58:48;20.30;41.60
5334;DHT22;2689;50.954;7.116;2024-03-08T11:01:15;20.70;40.00
5334;DHT22;2689;50.954;7.116;2024-03-08T11:03:46;20.10;41.20
5334;DHT22;2689;50.954;7.116;2024-03-08T11:06:16;20.50;40.80
5334;DHT22;2689;50.954;7.116;2024-03-08T11:08:44;19.20;41.00
5334;DHT22;2689;50.954;7.116;2024-03-08T11:11:27;19.30;42.20
5334;DHT22;2689;50.954;7.116;2024-03-08T11:13:56;19.10;41.40
5334;DHT22;2689;50.954;7.116;2024-03-08T11:16:40;19.60;42.40
5334;DHT22;2689;50.954;7.116;2024-03-08T11:19:25;19.60;41.40
5334;DHT22;2689;50.954;7.116;2024-03-08T11:22:00;19.40;41.00
5334;DHT22;2689;50.954;7.116;2024-03-08T11:24:26;20.00;41.40
5334;DHT22;2689;50.954;7.116;2024-03-08T11:26:57;20.90;40.90
5334;DHT22;2689;50.954;7.116;2024-03-08T11:29:36;21.00;39.70
5334;DHT22;2689;50.954;7.116;2024-03-08T11:32:08;20.90;40.00
5334;DHT22;2689;50.954;7.116;2024-03-08T11:34:35;20.90;40.10
5334;DHT22;2689;50.954;7.116;2024-03-08T11:37:05;20.80;39.00
5334;DHT22;2689;50.954;7.116;2024-03-08T11:39:36;19.40;38.80
5334;DHT22;2689;50.954;7.116;2024-03-08T11:42:06;19.20;42.30
5334;DHT22;2689;50.954;7.116;2024-03-08T11:44:33;19.30;41.10
5334;DHT22;2689;50.954;7.116;2024-03-08T11:47:01;19.10;40.60
5334;DHT22;2689;50.954;7.116;2024-03-08T11:49:31;19.00;42.20
5334;DHT22;2689;50.954;7.116;2024-03-08T11:51:59;19.30;42.10
5334;DHT22;2689;50.954;7.116;2024-03-08T11:54:29;19.60;40.50
5334;DHT22;2689;50.954;7.116;2024-03-08T11:56:57;20.00;41.20
5334;DHT22;2689;50.954;7.116;2024-03-08T11:59:27;20.90;39.90
5334;DHT22;2689;50.954;7.116;2024-03-08T12:02:00;21.00;38.80
5334;DHT22;2689;50.954;7.116;2024-03-08T12:04:27;20.30;39.70
5334;DHT22;2689;50.954;7.116;2024-03-08T12:06:54;20.40;39.30
5334;DHT22;2689;50.954;7.116;2024-03-08T12:09:21;20.40;39.60
5334;DHT22;2689;50.954;7.116;2024-03-08T12:11:50;20.40;39.40
5334;DHT22;2689;50.954;7.116;2024-03-08T12:14:17;21.20;39.50
5334;DHT22;2689;50.954;7.116;2024-03-08T12:16:44;22.00;38.40
5334;DHT22;2689;50.954;7.116;2024-03-08T12:19:11;21.60;37.20
5334;DHT22;2689;50.954;7.116;2024-03-08T12:21:38;21.40;38.10
5334;DHT22;2689;50.954;7.116;2024-03-08T12:24:14;21.10;38.00
5334;DHT22;2689;50.954;7.116;2024-03-08T12:26:45;20.80;38.50
5334;DHT22;2689;50.954;7.116;2024-03-08T12:29:19;20.50;39.00
5334;DHT22;2689;50.954;7.116;2024-03-08T12:31:48;21.10;39.90
5334;DHT22;2689;50.954;7.116;2024-03-08T12:34:17;21.60;38.60
5334;DHT22;2689;50.954;7.116;2024-03-08T12:36:45;21.70;38.80
5334;DHT22;2689;50.954;7.116;2024-03-08T12:39:16;21.40;38.20
5334;DHT22;2689;50.954;7.116;2024-03-08T12:41:43;21.20;37.80
5334;DHT22;2689;50.954;7.116;2024-03-08T12:44:12;21.10;39.30
5334;DHT22;2689;50.954;7.116;2024-03-08T12:46:40;21.40;37.50
5334;DHT22;2689;50.954;7.116;2024-03-08T12:49:10;20.90;38.20
5334;DHT22;2689;50.954;7.116;2024-03-08T12:51:38;21.20;38.80
5334;DHT22;2689;50.954;7.116;2024-03-08T12:54:06;21.50;39.20
5334;DHT22;2689;50.954;7.116;2024-03-08T12:56:35;21.40;38.10
5334;DHT22;2689;50.954;7.116;2024-03-08T12:59:04;20.90;37.90
5334;DHT22;2689;50.954;7.116;2024-03-08T13:01:32;20.40;38.30
5334;DHT22;2689;50.954;7.116;2024-03-08T13:04:00;20.70;38.70
5334;DHT22;2689;50.954;7.116;2024-03-08T13:06:28;20.70;37.60
5334;DHT22;2689;50.954;7.116;2024-03-08T13:08:56;19.90;39.40
5334;DHT22;2689;50.954;7.116;2024-03-08T13:11:24;20.00;39.20
5334;DHT22;2689;50.954;7.116;2024-03-08T13:13:51;19.70;39.20
5334;DHT22;2689;50.954;7.116;2024-03-08T13:16:19;19.70;39.60
5334;DHT22;2689;50.954;7.116;2024-03-08T13:18:46;19.40;39.80
5334;DHT22;2689;50.954;7.116;2024-03-08T13:21:17;19.40;40.80
5334;DHT22;2689;50.954;7.116;2024-03-08T13:23:49;19.40;40.00
5334;DHT22;2689;50.954;7.116;2024-03-08T13:26:18;19.10;40.40
5334;DHT22;2689;50.954;7.116;2024-03-08T13:28:47;19.30;40.60
5334;DHT22;2689;50.954;7.116;2024-03-08T13:31:14;19.40;41.30
5334;DHT22;2689;50.954;7.116;2024-03-08T13:33:41;19.70;40.10
5334;DHT22;2689;50.954;7.116;2024-03-08T13:36:11;19.30;40.40
5334;DHT22;2689;50.954;7.116;2024-03-08T13:38:42;19.00;41.20
5334;DHT22;2689;50.954;7.116;2024-03-08T13:41:10;19.30;40.90
5334;DHT22;2689;50.954;7.116;2024-03-08T13:43:40;19.00;40.50
5334;DHT22;2689;50.954;7.116;2024-03-08T13:46:07;18.50;41.00
5334;DHT22;2689;50.954;7.116;2024-03-08T13:48:37;18.00;42.10
5334;DHT22;2689;50.954;7.116;2024-03-08T13:51:04;18.20;42.50
5334;DHT22;2689;50.954;7.116;2024-03-08T13:53:31;18.10;42.50
5334;DHT22;2689;50.954;7.116;2024-03-08T13:56:01;18.10;42.00
5334;DHT22;2689;50.954;7.116;2024-03-08T13:58:28;18.30;42.00
5334;DHT22;2689;50.954;7.116;2024-03-08T14:00:55;18.60;41.80
5334;DHT22;2689;50.954;7.116;2024-03-08T14:03:22;18.90;41.80
5334;DHT22;2689;50.954;7.116;2024-03-08T14:05:49;19.10;41.10
5334;DHT22;2689;50.954;7.116;2024-03-08T14:08:16;18.80;42.20
5334;DHT22;2689;50.954;7.116;2024-03-08T14:10:44;19.10;42.20
5334;DHT22;2689;50.954;7.116;2024-03-08T14:13:13;18.70;42.30
5334;DHT22;2689;50.954;7.116;2024-03-08T14:15:41;18.70;43.70
5334;DHT22;2689;50.954;7.116;2024-03-08T14:18:11;19.40;43.00
5334;DHT22;2689;50.954;7.116;2024-03-08T14:20:38;19.30;42.20
5334;DHT22;2689;50.954;7.116;2024-03-08T14:23:05;19.40;42.70
5334;DHT22;2689;50.954;7.116;2024-03-08T14:25:33;19.10;42.60
5334;DHT22;2689;50.954;7.116;2024-03-08T14:28:00;18.80;43.10
5334;DHT22;2689;50.954;7.116;2024-03-08T14:30:33;18.70;43.60
5334;DHT22;2689;50.954;7.116;2024-03-08T14:33:04;18.00;44.20
5334;DHT22;2689;50.954;7.116;2024-03-08T14:35:34;18.00;45.40
5334;DHT22;2689;50.954;7.116;2024-03-08T14:38:01;17.50;45.30
5334;DHT22;2689;50.954;7.116;2024-03-08T14:40:28;17.00;45.90
5334;DHT22;2689;50.954;7.116;2024-03-08T14:42:56;16.70;46.20
5334;DHT22;2689;50.954;7.116;2024-03-08T14:45:23;16.80;46.60
5334;DHT22;2689;50.954;7.116;2024-03-08T14:47:53;17.30;47.00
5334;DHT22;2689;50.954;7.116;2024-03-08T14:50:21;16.90;45.80
5334;DHT22;2689;50.954;7.116;2024-03-08T14:52:49;16.80;47.10
5334;DHT22;2689;50.954;7.116;2024-03-08T14:55:16;16.80;46.70
5334;DHT22;2689;50.954;7.116;2024-03-08T14:57:45;16.40;46.80
5334;DHT22;2689;50.954;7.116;2024-03-08T15:00:13;16.10;47.40
5334;DHT22;2689;50.954;7.116;2024-03-08T15:02:44;16.00;48.20
5334;DHT22;2689;50.954;7.116;2024-03-08T15:05:13;16.50;48.30
5334;DHT22;2689;50.954;7.116;2024-03-08T15:07:47;17.00;47.20
5334;DHT22;2689;50.954;7.116;2024-03-08T15:10:14;16.60;46.60
5334;DHT22;2689;50.954;7.116;2024-03-08T15:12:43;16.50;47.10
5334;DHT22;2689;50.954;7.116;2024-03-08T15:15:12;16.50;47.40
5334;DHT22;2689;50.954;7.116;2024-03-08T15:17:39;16.40;47.20
5334;DHT22;2689;50.954;7.116;2024-03-08T15:20:08;16.20;47.50
5334;DHT22;2689;50.954;7.116;2024-03-08T15:22:43;16.10;47.90
5334;DHT22;2689;50.954;7.116;2024-03-08T15:25:10;15.80;47.50
5334;DHT22;2689;50.954;7.116;2024-03-08T15:27:42;15.50;47.20
5334;DHT22;2689;50.954;7.116;2024-03-08T15:30:09;15.40;47.90
5334;DHT22;2689;50.954;7.116;2024-03-08T15:32:39;15.10;48.10
5334;DHT22;2689;50.954;7.116;2024-03-08T15:35:07;14.90;48.80
5334;DHT22;2689;50.954;7.116;2024-03-08T15:37:39;14.70;49.30
5334;DHT22;2689;50.954;7.116;2024-03-08T15:40:10;15.00;49.20
5334;DHT22;2689;50.954;7.116;2024-03-08T15:42:47;14.70;49.30
5334;DHT22;2689;50.954;7.116;2024-03-08T15:45:14;14.40;50.00
5334;DHT22;2689;50.954;7.116;2024-03-08T15:47:41;14.40;50.00
5334;DHT22;2689;50.954;7.116;2024-03-08T15:50:09;14.20;50.10
5334;DHT22;2689;50.954;7.116;2024-03-08T15:52:37;14.00;50.40
5334;DHT22;2689;50.954;7.116;2024-03-08T15:55:06;13.90;49.90
5334;DHT22;2689;50.954;7.116;2024-03-08T15:57:34;13.50;50.40
5334;DHT22;2689;50.954;7.116;2024-03-08T16:00:03;13.40;51.20
5334;DHT22;2689;50.954;7.116;2024-03-08T16:02:44;13.30;51.40
5334;DHT22;2689;50.954;7.116;2024-03-08T16:05:10;13.10;52.10
5334;DHT22;2689;50.954;7.116;2024-03-08T16:07:39;13.10;52.40
5334;DHT22;2689;50.954;7.116;2024-03-08T16:10:08;13.10;52.30
5334;DHT22;2689;50.954;7.116;2024-03-08T16:12:38;13.00;52.40
5334;DHT22;2689;50.954;7.116;2024-03-08T16:15:07;12.90;52.70
5334;DHT22;2689;50.954;7.116;2024-03-08T16:17:35;12.80;52.80